createdAt,value
2022-11-23T00:00:31.932Z,92810.25
2022-11-23T00:05:35.152Z,92811.41
2022-11-23T00:10:38.883Z,92775.09
2022-11-23T00:15:42.148Z,92803.91
2022-11-23T00:20:45.885Z,92787.88
2022-11-23T00:25:49.890Z,92784.38
2022-11-23T00:30:54.414Z,92776.19
2022-11-23T00:36:04.218Z,92776.97
2022-11-23T00:41:11.720Z,92778.44
2022-11-23T00:46:17.925Z,92764.38
2022-11-23T00:51:24.652Z,92763.50
2022-11-23T00:56:29.092Z,92763.13
2022-11-23T01:01:37.213Z,92759.22
2022-11-23T01:06:41.459Z,92761.50
2022-11-23T01:11:45.457Z,92758.03
2022-11-23T01:16:49.122Z,92761.84
2022-11-23T01:21:52.785Z,92724.16
2022-11-23T01:26:56.463Z,92740.50
2022-11-23T01:31:59.587Z,92750.31
2022-11-23T01:37:02.777Z,92716.06
2022-11-23T01:42:08.455Z,92717.25
2022-11-23T01:47:12.333Z,92719.97
2022-11-23T01:52:21.872Z,92719.66
2022-11-23T01:57:37.348Z,92705.03
2022-11-23T02:02:50.436Z,92699.84
2022-11-23T02:07:54.695Z,92680.06
2022-11-23T02:13:05.606Z,92674.63
2022-11-23T02:18:18.028Z,92699.88
2022-11-23T02:23:47.020Z,92672.31
2022-11-23T02:29:02.162Z,92671.97
2022-11-23T02:34:07.819Z,92620.94
2022-11-23T02:39:21.763Z,92677.03
2022-11-23T02:44:36.814Z,92679.72
2022-11-23T02:49:42.136Z,92664.19
2022-11-23T02:54:45.744Z,92652.50
2022-11-23T02:59:49.736Z,92653.31
2022-11-23T03:04:53.383Z,92635.06
2022-11-23T03:09:56.658Z,92630.03
2022-11-23T03:15:01.641Z,92629.63
2022-11-23T03:20:07.658Z,92623.13
2022-11-23T03:25:16.738Z,92631.66
2022-11-23T03:30:22.076Z,92599.03
2022-11-23T03:35:26.518Z,92624.25
2022-11-23T03:40:48.559Z,92643.31
2022-11-23T03:46:04.172Z,92626.22
2022-11-23T03:51:07.811Z,92616.91
2022-11-23T03:56:12.589Z,92614.19
2022-11-23T04:01:24.666Z,92607.97
2022-11-23T04:06:35.318Z,92609.91
2022-11-23T04:11:46.764Z,92586.19
2022-11-23T04:16:49.821Z,92606.78
2022-11-23T04:21:54.285Z,92618.47
2022-11-23T04:26:59.423Z,92614.59
2022-11-23T04:32:02.544Z,92624.28
2022-11-23T04:37:10.298Z,92628.19
2022-11-23T04:42:18.386Z,92624.28
2022-11-23T04:47:28.034Z,92637.88
2022-11-23T04:52:35.935Z,92638.63
2022-11-23T04:57:45.941Z,92626.63
2022-11-23T05:02:49.715Z,92640.22
2022-11-23T05:08:00.350Z,92638.28
2022-11-23T05:13:16.202Z,92659.22
2022-11-23T05:18:20.990Z,92666.22
2022-11-23T05:23:26.592Z,92677.78
2022-11-23T05:28:40.157Z,92699.09
2022-11-23T05:33:47.265Z,92698.28
2022-11-23T05:38:53.663Z,92684.56
2022-11-23T05:44:03.662Z,92699.00
2022-11-23T05:49:08.249Z,92701.56
2022-11-23T05:54:14.378Z,92704.44
2022-11-23T05:59:22.677Z,92698.75
2022-11-23T06:04:32.641Z,92699.50
2022-11-23T06:09:36.664Z,92706.22
2022-11-23T06:14:44.433Z,92717.69
2022-11-23T06:19:50.980Z,92718.78
2022-11-23T06:24:54.936Z,92694.09
2022-11-23T06:30:33.187Z,92707.09
2022-11-23T06:35:41.395Z,92700.88
2022-11-23T06:40:44.861Z,92690.00
2022-11-23T06:45:48.724Z,92684.94
2022-11-23T06:50:52.381Z,92702.31
2022-11-23T06:56:03.306Z,92683.69
2022-11-23T07:01:09.693Z,92672.22
2022-11-23T07:06:19.572Z,92679.81
2022-11-23T07:11:23.391Z,92656.09
2022-11-23T07:16:26.932Z,92701.25
2022-11-23T07:21:30.785Z,92663.13
2022-11-23T07:26:34.422Z,92661.91
2022-11-23T07:31:38.604Z,92662.59
2022-11-23T07:36:42.019Z,92651.28
2022-11-23T07:41:45.580Z,92654.31
2022-11-23T07:46:57.315Z,92654.94
2022-11-23T07:52:00.574Z,92640.47
2022-11-23T07:57:04.183Z,92622.72
2022-11-23T08:02:13.039Z,92629.00
2022-11-23T08:07:18.712Z,92615.56
2022-11-23T08:12:22.035Z,92590.00
2022-11-23T08:17:25.218Z,92623.00
2022-11-23T08:22:28.310Z,92614.50
2022-11-23T08:27:32.225Z,92607.81
2022-11-23T08:32:36.427Z,92615.19
2022-11-23T08:37:39.967Z,92627.13
2022-11-23T08:42:43.623Z,92633.44
2022-11-23T08:47:46.910Z,92668.09
2022-11-23T08:52:56.239Z,92665.31
2022-11-23T08:57:59.971Z,92675.81
2022-11-23T09:03:04.192Z,92698.16
2022-11-23T09:08:07.461Z,92688.91
2022-11-23T09:13:10.587Z,92699.25
2022-11-23T09:18:14.081Z,92684.59
2022-11-23T09:23:17.335Z,92687.91
2022-11-23T09:28:21.014Z,92709.44
2022-11-23T09:33:25.562Z,92715.69
2022-11-23T09:38:54.538Z,92711.22
2022-11-23T09:44:21.089Z,92705.81
2022-11-23T09:49:38.459Z,92708.28
2022-11-23T09:54:45.489Z,92702.16
2022-11-23T09:59:59.442Z,92707.34
2022-11-23T10:05:04.846Z,92682.25
2022-11-23T10:10:42.377Z,92691.72
2022-11-23T10:16:23.380Z,92681.91
2022-11-23T10:22:13.086Z,92680.22
2022-11-23T10:27:19.016Z,92628.28
2022-11-23T10:32:37.696Z,92667.38
2022-11-23T10:37:42.372Z,92665.56
2022-11-23T10:42:55.138Z,92669.16
2022-11-23T10:48:01.624Z,92682.47
2022-11-23T10:53:28.695Z,92670.41
2022-11-23T10:58:39.262Z,92648.19
2022-11-23T11:03:43.014Z,92659.97
2022-11-23T11:08:56.152Z,92663.44
2022-11-23T11:14:17.632Z,92686.44
2022-11-23T11:19:31.235Z,92681.03
2022-11-23T11:24:47.400Z,92672.16
2022-11-23T11:30:24.648Z,92681.13
2022-11-23T11:35:32.599Z,92672.69
2022-11-23T11:40:48.591Z,92665.84
2022-11-23T11:51:35.618Z,92669.47
2022-11-23T11:56:44.562Z,92681.44
2022-11-23T12:02:19.867Z,92662.06
2022-11-23T12:07:40.232Z,92662.91
2022-11-23T12:12:44.962Z,92676.00
2022-11-23T12:17:56.858Z,92676.28
2022-11-23T12:23:09.800Z,92674.44
2022-11-23T12:28:27.396Z,92674.56
2022-11-23T12:33:46.394Z,92670.84
2022-11-23T12:38:58.640Z,92660.50
2022-11-23T12:44:24.845Z,92668.19
2022-11-23T12:49:49.528Z,92664.94
2022-11-23T12:55:18.016Z,92669.25
2022-11-23T13:00:25.202Z,92685.25
2022-11-23T13:05:50.382Z,92694.78
2022-11-23T13:11:25.539Z,92677.22
2022-11-23T13:16:55.016Z,92694.72
2022-11-23T13:21:59.426Z,92691.81
2022-11-23T13:27:14.953Z,92712.53
2022-11-23T13:32:52.663Z,92730.72
2022-11-23T13:38:02.242Z,92742.97
2022-11-23T13:43:22.823Z,92743.03
2022-11-23T13:48:55.434Z,92734.91
2022-11-23T13:53:57.714Z,92717.56
2022-11-23T13:59:23.837Z,92725.84
2022-11-23T14:04:29.645Z,92734.94
2022-11-23T14:09:35.365Z,92742.06
2022-11-23T14:14:54.247Z,92752.31
2022-11-23T14:20:14.955Z,92758.47
2022-11-23T14:25:43.698Z,92768.47
2022-11-23T14:31:09.141Z,92759.56
2022-11-23T14:36:26.534Z,92745.31
2022-11-23T14:41:32.520Z,92756.78
2022-11-23T14:46:35.580Z,92769.06
2022-11-23T14:51:45.247Z,92768.16
2022-11-23T14:56:51.375Z,92752.56
2022-11-23T15:02:01.439Z,92754.41
2022-11-23T15:07:12.618Z,92765.84
2022-11-23T15:12:26.531Z,92778.19
2022-11-23T15:17:29.781Z,92768.66
2022-11-23T15:22:37.015Z,92771.63
2022-11-23T15:27:44.473Z,92745.41
2022-11-23T15:32:59.977Z,92750.81
2022-11-23T15:38:08.044Z,92756.38
2022-11-23T15:43:16.797Z,92756.13
2022-11-23T15:48:23.534Z,92750.69
2022-11-23T15:53:47.203Z,92752.19
2022-11-23T15:58:52.441Z,92748.56
2022-11-23T16:04:05.153Z,92772.69
2022-11-23T16:09:50.746Z,92783.09
2022-11-23T16:14:58.805Z,92771.81
2022-11-23T16:20:05.747Z,92778.72
2022-11-23T16:25:27.895Z,92780.19
2022-11-23T16:30:40.756Z,92782.34
2022-11-23T16:35:44.454Z,92762.66
2022-11-23T16:40:48.702Z,92789.69
2022-11-23T16:45:52.062Z,92795.88
2022-11-23T16:50:56.815Z,92804.00
2022-11-23T16:56:03.139Z,92800.38
2022-11-23T17:01:16.715Z,92804.56
2022-11-23T17:06:24.353Z,92799.84
2022-11-23T17:11:27.984Z,92823.50
2022-11-23T17:16:31.573Z,92827.47
2022-11-23T17:21:35.125Z,92838.47
2022-11-23T17:26:45.102Z,92835.38
2022-11-23T17:31:50.814Z,92844.00
2022-11-23T17:36:54.499Z,92844.03
2022-11-23T17:42:04.844Z,92863.56
2022-11-23T17:47:24.268Z,92868.66
2022-11-23T17:52:27.533Z,92861.69
2022-11-23T17:57:30.642Z,92869.13
2022-11-23T18:02:33.600Z,92875.41
2022-11-23T18:07:37.551Z,92886.38
2022-11-23T18:12:40.970Z,92892.66
2022-11-23T18:17:44.070Z,92881.81
2022-11-23T18:22:47.100Z,92899.75
2022-11-23T18:27:50.394Z,92887.66
2022-11-23T18:32:53.541Z,92880.59
2022-11-23T18:37:56.679Z,92882.91
2022-11-23T18:42:59.816Z,92897.72
2022-11-23T18:48:03.587Z,92891.00
2022-11-23T18:53:09.505Z,92892.63
2022-11-23T18:58:13.447Z,92901.25
2022-11-23T19:03:16.674Z,92888.41
2022-11-23T19:08:19.674Z,92891.69
2022-11-23T19:13:22.683Z,92868.81
2022-11-23T19:18:25.635Z,92881.78
2022-11-23T19:23:29.893Z,92878.28
2022-11-23T19:28:34.386Z,92890.88
2022-11-23T19:33:37.447Z,92872.84
2022-11-23T19:38:41.253Z,92887.13
2022-11-23T19:43:45.285Z,92884.56
2022-11-23T19:48:49.566Z,92902.84
2022-11-23T19:53:55.129Z,92908.47
2022-11-23T19:59:00.001Z,92892.00
2022-11-23T20:04:09.771Z,92899.75
2022-11-23T20:09:21.635Z,92905.28
2022-11-23T20:14:25.310Z,92885.44
2022-11-23T20:19:28.943Z,92897.66
2022-11-23T20:24:33.175Z,92906.28
2022-11-23T20:29:37.235Z,92907.91
2022-11-23T20:34:41.086Z,92914.16
2022-11-23T20:39:44.568Z,92913.75
2022-11-23T20:44:47.997Z,92902.81
2022-11-23T20:49:52.589Z,92896.94
2022-11-23T20:54:55.890Z,92905.59
2022-11-23T20:59:59.330Z,92917.69
2022-11-23T21:05:03.093Z,92930.59
2022-11-23T21:10:06.672Z,92928.25
2022-11-23T21:15:09.798Z,92936.41
2022-11-23T21:20:12.974Z,92953.91
2022-11-23T21:25:16.135Z,92964.84
2022-11-23T21:30:19.521Z,92944.13
2022-11-23T21:35:22.536Z,92953.09
2022-11-23T21:40:25.605Z,92956.22
2022-11-23T21:45:28.642Z,92955.47
2022-11-23T21:50:31.706Z,92946.91
2022-11-23T21:55:34.918Z,92953.84
2022-11-23T22:00:37.968Z,92955.72
2022-11-23T22:05:41.065Z,92967.34
2022-11-23T22:10:44.344Z,92956.88
2022-11-23T22:15:48.182Z,92978.28
2022-11-23T22:20:52.311Z,92981.06
2022-11-23T22:25:55.816Z,92983.44
2022-11-23T22:30:59.143Z,92963.22
2022-11-23T22:36:08.340Z,92979.59
2022-11-23T22:41:13.480Z,92992.03
2022-11-23T22:46:19.474Z,92965.50
2022-11-23T22:51:23.984Z,92985.72
2022-11-23T22:56:29.017Z,92984.13
2022-11-23T23:01:32.383Z,92991.09
2022-11-23T23:06:36.157Z,92975.16
2022-11-23T23:11:40.307Z,92980.22
2022-11-23T23:16:44.437Z,92968.53
2022-11-23T23:21:47.483Z,92979.91
2022-11-23T23:26:50.501Z,92979.47
2022-11-23T23:31:53.670Z,92981.47
2022-11-23T23:36:56.868Z,92971.31
2022-11-23T23:41:59.912Z,92988.75
2022-11-23T23:47:03.054Z,92999.94
2022-11-23T23:52:06.045Z,92990.53
2022-11-23T23:57:09.296Z,92971.09
